sensor_id;sensor_type;location;lat;lon;timestamp;temperature;humidity
11320;DHT22;5715;48.234;14.320;2022-08-25T00:00:27;16.50;99.90
11320;DHT22;5715;48.234;14.320;2022-08-25T00:03:15;16.50;99.90
11320;DHT22;5715;48.234;14.320;2022-08-25T00:06:06;16.50;99.90
11320;DHT22;5715;48.234;14.320;2022-08-25T00:08:54;16.40;99.90
11320;DHT22;5715;48.234;14.320;2022-08-25T00:11:47;16.40;99.90
11320;DHT22;5715;48.234;14.320;2022-08-25T00:14:36;16.30;99.90
11320;DHT22;5715;48.234;14.320;2022-08-25T00:17:24;16.30;99.90
11320;DHT22;5715;48.234;14.320;2022-08-25T00:20:14;16.30;99.90
11320;DHT22;5715;48.234;14.320;2022-08-25T00:23:02;16.30;99.90
11320;DHT22;5715;48.234;14.320;2022-08-25T00:25:53;16.20;99.90
11320;DHT22;5715;48.234;14.320;2022-08-25T00:28:42;16.20;99.90
11320;DHT22;5715;48.234;14.320;2022-08-25T00:31:30;16.10;99.90
11320;DHT22;5715;48.234;14.320;2022-08-25T00:34:28;16.10;99.90
11320;DHT22;5715;48.234;14.320;2022-08-25T00:37:20;16.10;99.90
11320;DHT22;5715;48.234;14.320;2022-08-25T00:40:09;16.10;99.90
11320;DHT22;5715;48.234;14.320;2022-08-25T00:42:57;16.10;99.90
11320;DHT22;5715;48.234;14.320;2022-08-25T00:45:45;16.10;99.90
11320;DHT22;5715;48.234;14.320;2022-08-25T00:48:33;16.10;99.90
11320;DHT22;5715;48.234;14.320;2022-08-25T00:51:42;16.00;99.90
11320;DHT22;5715;48.234;14.320;2022-08-25T00:55:02;16.00;99.90
11320;DHT22;5715;48.234;14.320;2022-08-25T00:58:02;16.10;99.90
11320;DHT22;5715;48.234;14.320;2022-08-25T01:00:55;16.10;99.90
11320;DHT22;5715;48.234;14.320;2022-08-25T01:03:44;16.10;99.90
11320;DHT22;5715;48.234;14.320;2022-08-25T01:06:35;16.10;99.90
11320;DHT22;5715;48.234;14.320;2022-08-25T01:09:29;16.00;99.90
11320;DHT22;5715;48.234;14.320;2022-08-25T01:12:19;16.00;99.90
11320;DHT22;5715;48.234;14.320;2022-08-25T01:15:11;16.00;99.90
11320;DHT22;5715;48.234;14.320;2022-08-25T01:18:01;15.90;99.90
11320;DHT22;5715;48.234;14.320;2022-08-25T01:20:59;16.00;99.90
11320;DHT22;5715;48.234;14.320;2022-08-25T01:23:47;16.00;99.90
11320;DHT22;5715;48.234;14.320;2022-08-25T01:26:36;16.10;99.90
11320;DHT22;5715;48.234;14.320;2022-08-25T01:29:24;16.10;99.90
11320;DHT22;5715;48.234;14.320;2022-08-25T01:32:12;16.10;99.90
11320;DHT22;5715;48.234;14.320;2022-08-25T01:35:01;16.20;99.90
11320;DHT22;5715;48.234;14.320;2022-08-25T01:37:48;16.30;99.90
11320;DHT22;5715;48.234;14.320;2022-08-25T01:40:37;16.40;99.90
11320;DHT22;5715;48.234;14.320;2022-08-25T01:43:37;16.50;99.90
11320;DHT22;5715;48.234;14.320;2022-08-25T01:46:26;16.40;99.90
11320;DHT22;5715;48.234;14.320;2022-08-25T01:49:14;16.40;99.90
11320;DHT22;5715;48.234;14.320;2022-08-25T01:52:22;16.40;99.90
11320;DHT22;5715;48.234;14.320;2022-08-25T01:55:16;16.40;99.90
11320;DHT22;5715;48.234;14.320;2022-08-25T01:58:03;16.40;99.90
11320;DHT22;5715;48.234;14.320;2022-08-25T02:00:53;16.40;99.90
11320;DHT22;5715;48.234;14.320;2022-08-25T02:03:45;16.40;99.90
11320;DHT22;5715;48.234;14.320;2022-08-25T02:06:34;16.40;99.90
11320;DHT22;5715;48.234;14.320;2022-08-25T02:09:22;16.40;99.90
11320;DHT22;5715;48.234;14.320;2022-08-25T02:12:10;16.30;99.90
11320;DHT22;5715;48.234;14.320;2022-08-25T02:15:00;16.40;99.90
11320;DHT22;5715;48.234;14.320;2022-08-25T02:17:48;16.30;99.90
11320;DHT22;5715;48.234;14.320;2022-08-25T02:20:36;16.30;99.90
11320;DHT22;5715;48.234;14.320;2022-08-25T02:23:24;16.30;99.90
11320;DHT22;5715;48.234;14.320;2022-08-25T02:26:13;16.30;99.90
11320;DHT22;5715;48.234;14.320;2022-08-25T02:29:04;16.30;99.90
11320;DHT22;5715;48.234;14.320;2022-08-25T02:31:52;16.30;99.90
11320;DHT22;5715;48.234;14.320;2022-08-25T02:34:40;16.30;99.90
11320;DHT22;5715;48.234;14.320;2022-08-25T02:37:27;16.20;99.90
11320;DHT22;5715;48.234;14.320;2022-08-25T02:40:15;16.10;99.90
11320;DHT22;5715;48.234;14.320;2022-08-25T02:43:03;16.10;99.90
11320;DHT22;5715;48.234;14.320;2022-08-25T02:45:53;16.10;99.90
11320;DHT22;5715;48.234;14.320;2022-08-25T02:48:42;16.00;99.90
11320;DHT22;5715;48.234;14.320;2022-08-25T02:51:30;16.00;99.90
11320;DHT22;5715;48.234;14.320;2022-08-25T02:54:19;15.90;99.90
11320;DHT22;5715;48.234;14.320;2022-08-25T02:57:07;15.90;99.90
11320;DHT22;5715;48.234;14.320;2022-08-25T02:59:58;15.90;99.90
11320;DHT22;5715;48.234;14.320;2022-08-25T03:02:46;15.90;99.90
11320;DHT22;5715;48.234;14.320;2022-08-25T03:05:33;15.80;99.90
11320;DHT22;5715;48.234;14.320;2022-08-25T03:08:21;15.80;99.90
11320;DHT22;5715;48.234;14.320;2022-08-25T03:11:10;15.80;99.90
11320;DHT22;5715;48.234;14.320;2022-08-25T03:13:58;15.80;99.90
11320;DHT22;5715;48.234;14.320;2022-08-25T03:16:46;15.80;99.90
11320;DHT22;5715;48.234;14.320;2022-08-25T03:19:34;15.80;99.90
11320;DHT22;5715;48.234;14.320;2022-08-25T03:22:22;15.80;99.90
11320;DHT22;5715;48.234;14.320;2022-08-25T03:25:09;15.80;99.90
11320;DHT22;5715;48.234;14.320;2022-08-25T03:28:16;15.90;99.90
11320;DHT22;5715;48.234;14.320;2022-08-25T03:31:03;16.10;99.90
11320;DHT22;5715;48.234;14.320;2022-08-25T03:33:51;16.10;99.90
11320;DHT22;5715;48.234;14.320;2022-08-25T03:36:39;16.20;99.90
11320;DHT22;5715;48.234;14.320;2022-08-25T03:39:27;16.20;99.90
11320;DHT22;5715;48.234;14.320;2022-08-25T03:42:15;16.20;99.90
11320;DHT22;5715;48.234;14.320;2022-08-25T03:45:03;16.10;99.90
11320;DHT22;5715;48.234;14.320;2022-08-25T03:47:52;16.00;99.90
11320;DHT22;5715;48.234;14.320;2022-08-25T03:50:48;16.00;99.90
11320;DHT22;5715;48.234;14.320;2022-08-25T03:53:38;16.00;99.90
11320;DHT22;5715;48.234;14.320;2022-08-25T03:56:26;16.00;99.90
11320;DHT22;5715;48.234;14.320;2022-08-25T03:59:14;16.00;99.90
11320;DHT22;5715;48.234;14.320;2022-08-25T04:02:02;16.00;99.90
11320;DHT22;5715;48.234;14.320;2022-08-25T04:04:50;16.00;99.90
11320;DHT22;5715;48.234;14.320;2022-08-25T04:07:41;15.90;99.90
11320;DHT22;5715;48.234;14.320;2022-08-25T04:10:29;15.90;99.90
11320;DHT22;5715;48.234;14.320;2022-08-25T04:13:17;15.90;99.90
11320;DHT22;5715;48.234;14.320;2022-08-25T04:16:14;15.90;99.90
11320;DHT22;5715;48.234;14.320;2022-08-25T04:19:07;15.90;99.90
11320;DHT22;5715;48.234;14.320;2022-08-25T04:21:56;16.00;99.90
11320;DHT22;5715;48.234;14.320;2022-08-25T04:24:44;16.00;99.90
11320;DHT22;5715;48.234;14.320;2022-08-25T04:27:31;16.10;99.90
11320;DHT22;5715;48.234;14.320;2022-08-25T04:30:20;16.10;99.90
11320;DHT22;5715;48.234;14.320;2022-08-25T04:33:07;16.10;99.90
11320;DHT22;5715;48.234;14.320;2022-08-25T04:35:55;16.20;99.90
11320;DHT22;5715;48.234;14.320;2022-08-25T04:38:43;16.20;99.90
11320;DHT22;5715;48.234;14.320;2022-08-25T04:41:32;16.30;99.90
11320;DHT22;5715;48.234;14.320;2022-08-25T04:44:20;16.30;99.90
11320;DHT22;5715;48.234;14.320;2022-08-25T04:47:08;16.30;99.90
11320;DHT22;5715;48.234;14.320;2022-08-25T04:49:57;16.40;99.90
11320;DHT22;5715;48.234;14.320;2022-08-25T04:52:44;16.40;99.90
11320;DHT22;5715;48.234;14.320;2022-08-25T04:55:32;16.50;99.90
11320;DHT22;5715;48.234;14.320;2022-08-25T04:58:29;16.50;99.90
11320;DHT22;5715;48.234;14.320;2022-08-25T05:01:19;16.60;99.90
11320;DHT22;5715;48.234;14.320;2022-08-25T05:04:10;16.60;99.90
11320;DHT22;5715;48.234;14.320;2022-08-25T05:07:14;16.70;99.90
11320;DHT22;5715;48.234;14.320;2022-08-25T05:10:02;16.70;99.90
11320;DHT22;5715;48.234;14.320;2022-08-25T05:12:50;16.80;99.90
11320;DHT22;5715;48.234;14.320;2022-08-25T05:15:37;16.90;99.90
11320;DHT22;5715;48.234;14.320;2022-08-25T05:19:01;17.00;99.90
11320;DHT22;5715;48.234;14.320;2022-08-25T05:21:49;17.10;99.90
11320;DHT22;5715;48.234;14.320;2022-08-25T05:24:37;17.10;99.90
11320;DHT22;5715;48.234;14.320;2022-08-25T05:27:25;17.20;99.90
11320;DHT22;5715;48.234;14.320;2022-08-25T05:30:12;17.30;99.90
11320;DHT22;5715;48.234;14.320;2022-08-25T05:33:00;17.40;99.90
11320;DHT22;5715;48.234;14.320;2022-08-25T05:35:49;17.50;99.90
11320;DHT22;5715;48.234;14.320;2022-08-25T05:38:37;17.50;99.90
11320;DHT22;5715;48.234;14.320;2022-08-25T05:41:28;17.60;99.90
11320;DHT22;5715;48.234;14.320;2022-08-25T05:44:17;17.60;99.90
11320;DHT22;5715;48.234;14.320;2022-08-25T05:47:07;17.60;99.90
11320;DHT22;5715;48.234;14.320;2022-08-25T05:49:55;17.60;99.90
11320;DHT22;5715;48.234;14.320;2022-08-25T05:52:45;17.70;99.90
11320;DHT22;5715;48.234;14.320;2022-08-25T05:55:33;17.70;99.90
11320;DHT22;5715;48.234;14.320;2022-08-25T05:58:21;17.70;99.90
11320;DHT22;5715;48.234;14.320;2022-08-25T06:01:18;17.80;99.90
11320;DHT22;5715;48.234;14.320;2022-08-25T06:04:37;17.80;99.90
11320;DHT22;5715;48.234;14.320;2022-08-25T07:12:00;20.10;99.90
11320;DHT22;5715;48.234;14.320;2022-08-25T07:14:50;20.20;99.90
11320;DHT22;5715;48.234;14.320;2022-08-25T07:17:58;20.30;99.90
11320;DHT22;5715;48.234;14.320;2022-08-25T07:20:45;20.20;99.90
11320;DHT22;5715;48.234;14.320;2022-08-25T07:23:34;20.20;99.90
11320;DHT22;5715;48.234;14.320;2022-08-25T07:26:25;20.30;99.90
11320;DHT22;5715;48.234;14.320;2022-08-25T07:29:26;20.40;99.90
11320;DHT22;5715;48.234;14.320;2022-08-25T07:32:18;20.40;99.90
11320;DHT22;5715;48.234;14.320;2022-08-25T07:35:07;20.40;99.90
11320;DHT22;5715;48.234;14.320;2022-08-25T07:38:02;20.40;99.90
11320;DHT22;5715;48.234;14.320;2022-08-25T07:41:01;20.60;99.90
11320;DHT22;5715;48.234;14.320;2022-08-25T07:43:50;20.80;99.90
11320;DHT22;5715;48.234;14.320;2022-08-25T07:46:39;20.90;99.90
11320;DHT22;5715;48.234;14.320;2022-08-25T07:49:28;21.20;99.90
11320;DHT22;5715;48.234;14.320;2022-08-25T07:52:22;21.30;99.90
11320;DHT22;5715;48.234;14.320;2022-08-25T07:55:10;21.50;99.90
11320;DHT22;5715;48.234;14.320;2022-08-25T07:58:08;21.50;99.90
11320;DHT22;5715;48.234;14.320;2022-08-25T08:00:58;21.60;99.90
11320;DHT22;5715;48.234;14.320;2022-08-25T08:03:46;21.70;99.90
11320;DHT22;5715;48.234;14.320;2022-08-25T08:06:38;21.90;99.90
11320;DHT22;5715;48.234;14.320;2022-08-25T08:09:29;22.00;99.90
11320;DHT22;5715;48.234;14.320;2022-08-25T08:12:17;22.10;99.90
11320;DHT22;5715;48.234;14.320;2022-08-25T08:15:06;22.10;99.90
11320;DHT22;5715;48.234;14.320;2022-08-25T08:17:58;22.20;99.90
11320;DHT22;5715;48.234;14.320;2022-08-25T08:20:47;22.30;99.90
11320;DHT22;5715;48.234;14.320;2022-08-25T08:23:35;22.40;99.90
11320;DHT22;5715;48.234;14.320;2022-08-25T08:26:23;22.40;99.90
11320;DHT22;5715;48.234;14.320;2022-08-25T08:29:33;22.60;99.90
11320;DHT22;5715;48.234;14.320;2022-08-25T08:32:21;22.80;99.90
11320;DHT22;5715;48.234;14.320;2022-08-25T08:35:29;22.90;99.90
11320;DHT22;5715;48.234;14.320;2022-08-25T08:38:16;22.70;99.90
11320;DHT22;5715;48.234;14.320;2022-08-25T08:51:50;23.00;99.90
11320;DHT22;5715;48.234;14.320;2022-08-25T08:54:45;23.20;99.90
11320;DHT22;5715;48.234;14.320;2022-08-25T08:57:43;23.30;99.90
11320;DHT22;5715;48.234;14.320;2022-08-25T09:00:45;23.40;99.90
11320;DHT22;5715;48.234;14.320;2022-08-25T09:03:46;23.60;99.90
11320;DHT22;5715;48.234;14.320;2022-08-25T09:06:44;23.50;99.90
11320;DHT22;5715;48.234;14.320;2022-08-25T09:09:34;23.50;99.90
11320;DHT22;5715;48.234;14.320;2022-08-25T09:16:12;23.70;99.90
11320;DHT22;5715;48.234;14.320;2022-08-25T09:20:13;23.80;99.90
11320;DHT22;5715;48.234;14.320;2022-08-25T09:29:23;24.10;99.90
11320;DHT22;5715;48.234;14.320;2022-08-25T09:32:14;24.20;99.90
11320;DHT22;5715;48.234;14.320;2022-08-25T09:35:21;24.50;99.90
11320;DHT22;5715;48.234;14.320;2022-08-25T09:38:13;24.80;99.90
11320;DHT22;5715;48.234;14.320;2022-08-25T09:41:02;24.70;99.90
11320;DHT22;5715;48.234;14.320;2022-08-25T09:43:53;24.60;99.90
11320;DHT22;5715;48.234;14.320;2022-08-25T09:46:54;24.60;99.90
11320;DHT22;5715;48.234;14.320;2022-08-25T09:49:49;24.50;99.90
11320;DHT22;5715;48.234;14.320;2022-08-25T09:52:37;24.50;99.90
11320;DHT22;5715;48.234;14.320;2022-08-25T09:55:32;24.60;99.90
11320;DHT22;5715;48.234;14.320;2022-08-25T09:58:23;24.50;99.90
11320;DHT22;5715;48.234;14.320;2022-08-25T10:01:14;24.80;99.90
11320;DHT22;5715;48.234;14.320;2022-08-25T10:04:08;24.90;99.90
11320;DHT22;5715;48.234;14.320;2022-08-25T10:07:23;24.90;99.90
11320;DHT22;5715;48.234;14.320;2022-08-25T10:10:34;25.10;99.90
11320;DHT22;5715;48.234;14.320;2022-08-25T10:13:47;25.10;99.90
11320;DHT22;5715;48.234;14.320;2022-08-25T10:16:37;25.30;99.90
11320;DHT22;5715;48.234;14.320;2022-08-25T10:19:27;25.40;99.90
11320;DHT22;5715;48.234;14.320;2022-08-25T10:25:24;25.60;99.90
11320;DHT22;5715;48.234;14.320;2022-08-25T10:28:32;25.80;99.90
11320;DHT22;5715;48.234;14.320;2022-08-25T10:31:36;26.00;99.90
11320;DHT22;5715;48.234;14.320;2022-08-25T10:41:03;26.30;99.90
11320;DHT22;5715;48.234;14.320;2022-08-25T10:57:59;25.40;99.90
11320;DHT22;5715;48.234;14.320;2022-08-25T11:04:31;25.60;99.90
11320;DHT22;5715;48.234;14.320;2022-08-25T11:07:38;25.40;99.90
11320;DHT22;5715;48.234;14.320;2022-08-25T11:14:20;25.20;99.90
11320;DHT22;5715;48.234;14.320;2022-08-25T11:17:33;25.30;99.90
11320;DHT22;5715;48.234;14.320;2022-08-25T11:20:38;25.40;99.90
11320;DHT22;5715;48.234;14.320;2022-08-25T11:23:57;25.40;99.90
11320;DHT22;5715;48.234;14.320;2022-08-25T11:27:11;25.50;99.90
11320;DHT22;5715;48.234;14.320;2022-08-25T11:30:11;25.60;99.90
11320;DHT22;5715;48.234;14.320;2022-08-25T11:33:01;25.80;99.90
11320;DHT22;5715;48.234;14.320;2022-08-25T11:35:59;26.10;99.90
11320;DHT22;5715;48.234;14.320;2022-08-25T11:42:58;26.30;99.90
11320;DHT22;5715;48.234;14.320;2022-08-25T11:46:06;26.60;99.90
11320;DHT22;5715;48.234;14.320;2022-08-25T11:58:41;27.50;99.90
11320;DHT22;5715;48.234;14.320;2022-08-25T12:04:33;27.80;99.90
11320;DHT22;5715;48.234;14.320;2022-08-25T12:11:04;27.80;99.90
11320;DHT22;5715;48.234;14.320;2022-08-25T12:17:23;27.30;99.90
11320;DHT22;5715;48.234;14.320;2022-08-25T12:24:10;27.30;99.90
11320;DHT22;5715;48.234;14.320;2022-08-25T12:27:02;27.40;99.90
11320;DHT22;5715;48.234;14.320;2022-08-25T12:30:13;27.20;99.90
11320;DHT22;5715;48.234;14.320;2022-08-25T12:34:12;27.20;99.90
11320;DHT22;5715;48.234;14.320;2022-08-25T12:37:18;27.10;99.90
11320;DHT22;5715;48.234;14.320;2022-08-25T12:40:24;27.00;99.90
11320;DHT22;5715;48.234;14.320;2022-08-25T12:43:24;26.90;99.90
11320;DHT22;5715;48.234;14.320;2022-08-25T12:49:33;26.80;99.90
11320;DHT22;5715;48.234;14.320;2022-08-25T12:52:23;26.70;99.90
11320;DHT22;5715;48.234;14.320;2022-08-25T12:55:14;26.60;99.90
11320;DHT22;5715;48.234;14.320;2022-08-25T12:58:04;26.60;99.90
11320;DHT22;5715;48.234;14.320;2022-08-25T13:10:47;27.40;99.90
11320;DHT22;5715;48.234;14.320;2022-08-25T13:17:04;28.00;99.90
11320;DHT22;5715;48.234;14.320;2022-08-25T13:20:22;28.10;99.90
11320;DHT22;5715;48.234;14.320;2022-08-25T13:23:17;27.90;99.90
11320;DHT22;5715;48.234;14.320;2022-08-25T13:26:14;27.90;99.90
11320;DHT22;5715;48.234;14.320;2022-08-25T13:31:58;27.70;99.90
11320;DHT22;5715;48.234;14.320;2022-08-25T13:34:47;27.40;99.90
11320;DHT22;5715;48.234;14.320;2022-08-25T13:37:37;27.30;99.90
11320;DHT22;5715;48.234;14.320;2022-08-25T13:40:27;27.30;99.90
11320;DHT22;5715;48.234;14.320;2022-08-25T13:43:17;27.20;99.90
11320;DHT22;5715;48.234;14.320;2022-08-25T13:46:18;27.60;99.90
11320;DHT22;5715;48.234;14.320;2022-08-25T13:49:08;27.80;99.90
11320;DHT22;5715;48.234;14.320;2022-08-25T13:51:56;28.00;99.90
11320;DHT22;5715;48.234;14.320;2022-08-25T13:54:45;27.90;99.90
11320;DHT22;5715;48.234;14.320;2022-08-25T13:57:35;27.80;99.90
11320;DHT22;5715;48.234;14.320;2022-08-25T14:00:36;27.90;99.90
11320;DHT22;5715;48.234;14.320;2022-08-25T14:03:34;27.90;99.90
11320;DHT22;5715;48.234;14.320;2022-08-25T14:06:31;28.10;99.90
11320;DHT22;5715;48.234;14.320;2022-08-25T14:09:19;28.30;99.90
11320;DHT22;5715;48.234;14.320;2022-08-25T14:12:34;28.30;99.90
11320;DHT22;5715;48.234;14.320;2022-08-25T14:15:31;28.40;99.90
11320;DHT22;5715;48.234;14.320;2022-08-25T14:18:25;28.20;99.90
11320;DHT22;5715;48.234;14.320;2022-08-25T14:21:25;28.10;99.90
11320;DHT22;5715;48.234;14.320;2022-08-25T14:24:19;28.00;99.90
11320;DHT22;5715;48.234;14.320;2022-08-25T14:27:08;28.00;99.90
11320;DHT22;5715;48.234;14.320;2022-08-25T14:29:57;28.10;99.90
11320;DHT22;5715;48.234;14.320;2022-08-25T14:32:45;28.20;99.90
11320;DHT22;5715;48.234;14.320;2022-08-25T14:35:37;28.20;99.90
11320;DHT22;5715;48.234;14.320;2022-08-25T14:38:24;28.10;99.90
11320;DHT22;5715;48.234;14.320;2022-08-25T14:41:12;28.10;99.90
11320;DHT22;5715;48.234;14.320;2022-08-25T14:44:03;28.10;99.90
11320;DHT22;5715;48.234;14.320;2022-08-25T14:46:54;28.10;99.90
11320;DHT22;5715;48.234;14.320;2022-08-25T14:49:44;28.20;99.90
11320;DHT22;5715;48.234;14.320;2022-08-25T14:52:34;28.10;99.90
11320;DHT22;5715;48.234;14.320;2022-08-25T14:55:22;28.00;99.90
11320;DHT22;5715;48.234;14.320;2022-08-25T14:58:19;27.90;99.90
11320;DHT22;5715;48.234;14.320;2022-08-25T15:01:13;27.90;99.90
11320;DHT22;5715;48.234;14.320;2022-08-25T15:04:16;28.10;99.90
11320;DHT22;5715;48.234;14.320;2022-08-25T15:07:07;28.10;99.90
11320;DHT22;5715;48.234;14.320;2022-08-25T15:10:15;28.00;99.90
11320;DHT22;5715;48.234;14.320;2022-08-25T15:13:03;28.10;99.90
11320;DHT22;5715;48.234;14.320;2022-08-25T15:15:52;28.00;99.90
11320;DHT22;5715;48.234;14.320;2022-08-25T15:18:43;28.20;99.90
11320;DHT22;5715;48.234;14.320;2022-08-25T15:21:32;28.20;99.90
11320;DHT22;5715;48.234;14.320;2022-08-25T15:24:22;27.90;99.90
11320;DHT22;5715;48.234;14.320;2022-08-25T15:27:12;27.50;99.90
11320;DHT22;5715;48.234;14.320;2022-08-25T15:30:01;27.20;99.90
11320;DHT22;5715;48.234;14.320;2022-08-25T15:32:49;27.10;99.90
11320;DHT22;5715;48.234;14.320;2022-08-25T15:35:39;27.20;99.90
11320;DHT22;5715;48.234;14.320;2022-08-25T15:38:29;27.20;99.90
11320;DHT22;5715;48.234;14.320;2022-08-25T15:41:16;27.10;99.90
11320;DHT22;5715;48.234;14.320;2022-08-25T15:44:07;27.20;99.90
11320;DHT22;5715;48.234;14.320;2022-08-25T15:46:58;27.20;99.90
11320;DHT22;5715;48.234;14.320;2022-08-25T15:49:46;27.10;99.90
11320;DHT22;5715;48.234;14.320;2022-08-25T15:52:34;27.20;99.90
11320;DHT22;5715;48.234;14.320;2022-08-25T15:55:36;27.20;99.90
11320;DHT22;5715;48.234;14.320;2022-08-25T15:58:25;27.20;99.90
11320;DHT22;5715;48.234;14.320;2022-08-25T16:01:21;27.20;99.90
11320;DHT22;5715;48.234;14.320;2022-08-25T16:04:11;27.10;99.90
11320;DHT22;5715;48.234;14.320;2022-08-25T16:06:59;27.10;99.90
11320;DHT22;5715;48.234;14.320;2022-08-25T16:09:47;26.90;99.90
11320;DHT22;5715;48.234;14.320;2022-08-25T16:12:37;26.70;99.90
11320;DHT22;5715;48.234;14.320;2022-08-25T16:15:28;26.60;99.90
11320;DHT22;5715;48.234;14.320;2022-08-25T16:18:16;26.50;99.90
11320;DHT22;5715;48.234;14.320;2022-08-25T16:21:12;26.30;99.90
11320;DHT22;5715;48.234;14.320;2022-08-25T16:24:05;26.10;99.90
11320;DHT22;5715;48.234;14.320;2022-08-25T16:26:54;25.90;99.90
11320;DHT22;5715;48.234;14.320;2022-08-25T16:29:57;25.90;99.90
11320;DHT22;5715;48.234;14.320;2022-08-25T16:32:45;25.80;99.90
11320;DHT22;5715;48.234;14.320;2022-08-25T16:35:34;25.60;99.90
11320;DHT22;5715;48.234;14.320;2022-08-25T16:38:26;25.50;99.90
11320;DHT22;5715;48.234;14.320;2022-08-25T16:41:20;25.40;99.90
11320;DHT22;5715;48.234;14.320;2022-08-25T16:44:09;25.30;99.90
11320;DHT22;5715;48.234;14.320;2022-08-25T16:46:57;25.20;99.90
11320;DHT22;5715;48.234;14.320;2022-08-25T16:49:45;25.20;99.90
11320;DHT22;5715;48.234;14.320;2022-08-25T16:52:33;25.10;99.90
11320;DHT22;5715;48.234;14.320;2022-08-25T16:55:40;25.00;99.90
11320;DHT22;5715;48.234;14.320;2022-08-25T16:58:27;24.90;99.90
11320;DHT22;5715;48.234;14.320;2022-08-25T17:01:16;24.90;99.90
11320;DHT22;5715;48.234;14.320;2022-08-25T17:04:04;24.80;99.90
11320;DHT22;5715;48.234;14.320;2022-08-25T17:06:51;24.70;99.90
11320;DHT22;5715;48.234;14.320;2022-08-25T17:09:39;24.60;99.90
11320;DHT22;5715;48.234;14.320;2022-08-25T17:12:26;24.50;99.90
11320;DHT22;5715;48.234;14.320;2022-08-25T17:15:14;24.50;99.90
11320;DHT22;5715;48.234;14.320;2022-08-25T17:18:09;24.30;99.90
11320;DHT22;5715;48.234;14.320;2022-08-25T17:21:01;24.30;99.90
11320;DHT22;5715;48.234;14.320;2022-08-25T17:23:50;24.20;99.90
11320;DHT22;5715;48.234;14.320;2022-08-25T17:26:40;24.10;99.90
11320;DHT22;5715;48.234;14.320;2022-08-25T17:29:29;24.10;99.90
11320;DHT22;5715;48.234;14.320;2022-08-25T17:32:17;24.00;99.90
11320;DHT22;5715;48.234;14.320;2022-08-25T17:35:07;24.00;99.90
11320;DHT22;5715;48.234;14.320;2022-08-25T17:37:57;24.00;99.90
11320;DHT22;5715;48.234;14.320;2022-08-25T17:40:45;24.00;99.90
11320;DHT22;5715;48.234;14.320;2022-08-25T17:43:37;23.90;99.90
11320;DHT22;5715;48.234;14.320;2022-08-25T17:46:27;23.90;99.90
11320;DHT22;5715;48.234;14.320;2022-08-25T17:49:16;23.90;99.90
11320;DHT22;5715;48.234;14.320;2022-08-25T17:52:03;23.80;99.90
11320;DHT22;5715;48.234;14.320;2022-08-25T17:54:51;23.70;99.90
11320;DHT22;5715;48.234;14.320;2022-08-25T17:57:40;23.50;99.90
11320;DHT22;5715;48.234;14.320;2022-08-25T18:00:28;23.40;99.90
11320;DHT22;5715;48.234;14.320;2022-08-25T18:03:18;23.40;99.90
11320;DHT22;5715;48.234;14.320;2022-08-25T18:06:06;23.40;99.90
11320;DHT22;5715;48.234;14.320;2022-08-25T18:08:54;23.30;99.90
11320;DHT22;5715;48.234;14.320;2022-08-25T18:11:46;23.20;99.90
11320;DHT22;5715;48.234;14.320;2022-08-25T18:14:33;23.10;99.90
11320;DHT22;5715;48.234;14.320;2022-08-25T18:17:21;23.00;99.90
11320;DHT22;5715;48.234;14.320;2022-08-25T18:20:11;22.90;99.90
11320;DHT22;5715;48.234;14.320;2022-08-25T18:22:59;22.90;99.90
11320;DHT22;5715;48.234;14.320;2022-08-25T18:25:48;22.80;99.90
11320;DHT22;5715;48.234;14.320;2022-08-25T18:28:36;22.60;99.90
11320;DHT22;5715;48.234;14.320;2022-08-25T18:31:24;22.40;99.90
11320;DHT22;5715;48.234;14.320;2022-08-25T18:34:11;22.10;99.90
11320;DHT22;5715;48.234;14.320;2022-08-25T18:36:59;21.90;99.90
11320;DHT22;5715;48.234;14.320;2022-08-25T18:40:07;21.70;99.90
11320;DHT22;5715;48.234;14.320;2022-08-25T18:43:12;21.50;99.90
11320;DHT22;5715;48.234;14.320;2022-08-25T18:46:02;21.30;99.90
11320;DHT22;5715;48.234;14.320;2022-08-25T18:48:51;21.20;99.90
11320;DHT22;5715;48.234;14.320;2022-08-25T18:51:39;21.10;99.90
11320;DHT22;5715;48.234;14.320;2022-08-25T18:54:27;21.00;99.90
11320;DHT22;5715;48.234;14.320;2022-08-25T18:57:15;20.90;99.90
11320;DHT22;5715;48.234;14.320;2022-08-25T19:00:04;20.80;99.90
11320;DHT22;5715;48.234;14.320;2022-08-25T19:02:55;20.70;99.90
11320;DHT22;5715;48.234;14.320;2022-08-25T19:05:45;20.60;99.90
11320;DHT22;5715;48.234;14.320;2022-08-25T19:08:43;20.60;99.90
11320;DHT22;5715;48.234;14.320;2022-08-25T19:11:31;20.60;99.90
11320;DHT22;5715;48.234;14.320;2022-08-25T19:14:19;20.50;99.90
11320;DHT22;5715;48.234;14.320;2022-08-25T19:17:06;20.40;99.90
11320;DHT22;5715;48.234;14.320;2022-08-25T19:19:55;20.30;99.90
11320;DHT22;5715;48.234;14.320;2022-08-25T19:22:44;20.30;99.90
11320;DHT22;5715;48.234;14.320;2022-08-25T19:25:33;20.20;99.90
11320;DHT22;5715;48.234;14.320;2022-08-25T19:28:27;20.20;99.90
11320;DHT22;5715;48.234;14.320;2022-08-25T19:31:23;20.20;99.90
11320;DHT22;5715;48.234;14.320;2022-08-25T19:34:18;20.10;99.90
11320;DHT22;5715;48.234;14.320;2022-08-25T19:37:17;20.10;99.90
11320;DHT22;5715;48.234;14.320;2022-08-25T19:40:07;20.10;99.90
11320;DHT22;5715;48.234;14.320;2022-08-25T19:42:57;20.00;99.90
11320;DHT22;5715;48.234;14.320;2022-08-25T19:45:46;20.00;99.90
11320;DHT22;5715;48.234;14.320;2022-08-25T19:48:33;20.00;99.90
11320;DHT22;5715;48.234;14.320;2022-08-25T19:51:23;19.90;99.90
11320;DHT22;5715;48.234;14.320;2022-08-25T19:54:14;19.90;99.90
11320;DHT22;5715;48.234;14.320;2022-08-25T19:57:06;19.90;99.90
11320;DHT22;5715;48.234;14.320;2022-08-25T19:59:57;19.90;99.90
11320;DHT22;5715;48.234;14.320;2022-08-25T20:02:44;19.80;99.90
11320;DHT22;5715;48.234;14.320;2022-08-25T20:05:35;19.80;99.90
11320;DHT22;5715;48.234;14.320;2022-08-25T20:08:24;19.70;99.90
11320;DHT22;5715;48.234;14.320;2022-08-25T20:11:16;19.70;99.90
11320;DHT22;5715;48.234;14.320;2022-08-25T20:14:03;19.60;99.90
11320;DHT22;5715;48.234;14.320;2022-08-25T20:16:52;19.60;99.90
11320;DHT22;5715;48.234;14.320;2022-08-25T20:19:40;19.50;99.90
11320;DHT22;5715;48.234;14.320;2022-08-25T20:22:32;19.50;99.90
11320;DHT22;5715;48.234;14.320;2022-08-25T20:25:23;19.50;99.90
11320;DHT22;5715;48.234;14.320;2022-08-25T20:28:22;19.50;99.90
11320;DHT22;5715;48.234;14.320;2022-08-25T20:31:10;19.50;99.90
11320;DHT22;5715;48.234;14.320;2022-08-25T20:33:59;19.50;99.90
11320;DHT22;5715;48.234;14.320;2022-08-25T20:36:49;19.50;99.90
11320;DHT22;5715;48.234;14.320;2022-08-25T20:39:38;19.50;99.90
11320;DHT22;5715;48.234;14.320;2022-08-25T20:42:26;19.50;99.90
11320;DHT22;5715;48.234;14.320;2022-08-25T20:45:16;19.50;99.90
11320;DHT22;5715;48.234;14.320;2022-08-25T20:48:08;19.50;99.90
11320;DHT22;5715;48.234;14.320;2022-08-25T20:50:57;19.50;99.90